sensor_id;sensor_type;location;lat;lon;timestamp;temperature;humidity
22418;DHT22;11376;50.932;4.442;2023-09-12T00:01:25;21.60;99.90
22418;DHT22;11376;50.932;4.442;2023-09-12T00:03:51;21.70;99.90
22418;DHT22;11376;50.932;4.442;2023-09-12T00:06:17;21.60;99.90
22418;DHT22;11376;50.932;4.442;2023-09-12T00:08:42;21.60;99.90
22418;DHT22;11376;50.932;4.442;2023-09-12T00:11:09;21.60;99.90
22418;DHT22;11376;50.932;4.442;2023-09-12T00:13:37;21.60;99.90
22418;DHT22;11376;50.932;4.442;2023-09-12T00:16:03;21.60;99.90
22418;DHT22;11376;50.932;4.442;2023-09-12T00:18:31;21.70;99.90
22418;DHT22;11376;50.932;4.442;2023-09-12T00:20:56;21.60;99.90
22418;DHT22;11376;50.932;4.442;2023-09-12T00:23:24;21.60;99.90
22418;DHT22;11376;50.932;4.442;2023-09-12T00:25:51;21.60;99.90
22418;DHT22;11376;50.932;4.442;2023-09-12T00:28:17;21.60;99.90
22418;DHT22;11376;50.932;4.442;2023-09-12T00:30:43;21.60;99.90
22418;DHT22;11376;50.932;4.442;2023-09-12T00:33:09;21.50;99.90
22418;DHT22;11376;50.932;4.442;2023-09-12T00:35:34;21.60;99.90
22418;DHT22;11376;50.932;4.442;2023-09-12T00:38:01;21.60;99.90
22418;DHT22;11376;50.932;4.442;2023-09-12T00:40:26;21.70;99.90
22418;DHT22;11376;50.932;4.442;2023-09-12T00:42:52;21.60;99.90
22418;DHT22;11376;50.932;4.442;2023-09-12T00:45:18;21.80;99.90
22418;DHT22;11376;50.932;4.442;2023-09-12T00:47:44;21.80;99.90
22418;DHT22;11376;50.932;4.442;2023-09-12T00:50:10;21.70;99.90
22418;DHT22;11376;50.932;4.442;2023-09-12T00:52:38;21.70;99.90
22418;DHT22;11376;50.932;4.442;2023-09-12T00:55:05;21.70;99.90
22418;DHT22;11376;50.932;4.442;2023-09-12T00:57:33;21.60;99.90
22418;DHT22;11376;50.932;4.442;2023-09-12T01:00:04;21.60;99.90
22418;DHT22;11376;50.932;4.442;2023-09-12T01:02:40;21.60;99.90
22418;DHT22;11376;50.932;4.442;2023-09-12T01:05:10;21.60;99.90
22418;DHT22;11376;50.932;4.442;2023-09-12T01:07:37;21.60;99.90
22418;DHT22;11376;50.932;4.442;2023-09-12T01:10:06;21.60;99.90
22418;DHT22;11376;50.932;4.442;2023-09-12T01:12:32;21.50;99.90
22418;DHT22;11376;50.932;4.442;2023-09-12T01:14:58;21.50;99.90
22418;DHT22;11376;50.932;4.442;2023-09-12T01:17:24;21.70;99.90
22418;DHT22;11376;50.932;4.442;2023-09-12T01:19:51;21.70;99.90
22418;DHT22;11376;50.932;4.442;2023-09-12T01:27:48;21.50;99.90
22418;DHT22;11376;50.932;4.442;2023-09-12T01:30:20;21.30;99.90
22418;DHT22;11376;50.932;4.442;2023-09-12T01:32:46;21.20;99.90
22418;DHT22;11376;50.932;4.442;2023-09-12T01:35:13;21.10;99.90
22418;DHT22;11376;50.932;4.442;2023-09-12T01:37:39;20.90;99.90
22418;DHT22;11376;50.932;4.442;2023-09-12T01:40:05;20.80;99.90
22418;DHT22;11376;50.932;4.442;2023-09-12T01:42:43;20.80;99.90
22418;DHT22;11376;50.932;4.442;2023-09-12T01:45:12;20.80;99.90
22418;DHT22;11376;50.932;4.442;2023-09-12T01:47:39;20.90;99.90
22418;DHT22;11376;50.932;4.442;2023-09-12T01:50:08;20.90;99.90
22418;DHT22;11376;50.932;4.442;2023-09-12T01:52:35;21.00;99.90
22418;DHT22;11376;50.932;4.442;2023-09-12T01:55:02;21.10;99.90
22418;DHT22;11376;50.932;4.442;2023-09-12T01:57:28;21.00;99.90
22418;DHT22;11376;50.932;4.442;2023-09-12T01:59:54;20.80;99.90
22418;DHT22;11376;50.932;4.442;2023-09-12T02:02:20;20.70;99.90
22418;DHT22;11376;50.932;4.442;2023-09-12T02:05:16;20.60;99.90
22418;DHT22;11376;50.932;4.442;2023-09-12T02:07:46;20.70;99.90
22418;DHT22;11376;50.932;4.442;2023-09-12T02:10:12;20.80;99.90
22418;DHT22;11376;50.932;4.442;2023-09-12T02:12:38;20.70;99.90
22418;DHT22;11376;50.932;4.442;2023-09-12T02:15:05;20.80;99.90
22418;DHT22;11376;50.932;4.442;2023-09-12T02:17:31;21.00;99.90
22418;DHT22;11376;50.932;4.442;2023-09-12T02:19:57;20.90;99.90
22418;DHT22;11376;50.932;4.442;2023-09-12T02:22:22;20.80;99.90
22418;DHT22;11376;50.932;4.442;2023-09-12T02:24:49;20.60;99.90
22418;DHT22;11376;50.932;4.442;2023-09-12T02:27:15;20.50;99.90
22418;DHT22;11376;50.932;4.442;2023-09-12T02:29:41;20.40;99.90
22418;DHT22;11376;50.932;4.442;2023-09-12T02:32:08;20.40;99.90
22418;DHT22;11376;50.932;4.442;2023-09-12T02:34:34;20.40;99.90
22418;DHT22;11376;50.932;4.442;2023-09-12T02:37:00;20.50;99.90
22418;DHT22;11376;50.932;4.442;2023-09-12T02:39:26;20.60;99.90
22418;DHT22;11376;50.932;4.442;2023-09-12T02:41:51;20.80;99.90
22418;DHT22;11376;50.932;4.442;2023-09-12T02:44:17;20.90;99.90
22418;DHT22;11376;50.932;4.442;2023-09-12T02:46:43;20.80;99.90
22418;DHT22;11376;50.932;4.442;2023-09-12T02:49:08;20.50;99.90
22418;DHT22;11376;50.932;4.442;2023-09-12T02:51:38;20.40;99.90
22418;DHT22;11376;50.932;4.442;2023-09-12T02:54:03;20.40;99.90
22418;DHT22;11376;50.932;4.442;2023-09-12T02:56:29;20.40;99.90
22418;DHT22;11376;50.932;4.442;2023-09-12T02:58:56;20.30;99.90
22418;DHT22;11376;50.932;4.442;2023-09-12T03:01:22;20.20;99.90
22418;DHT22;11376;50.932;4.442;2023-09-12T03:03:48;20.20;99.90
22418;DHT22;11376;50.932;4.442;2023-09-12T03:06:15;20.20;99.90
22418;DHT22;11376;50.932;4.442;2023-09-12T03:08:42;20.30;99.90
22418;DHT22;11376;50.932;4.442;2023-09-12T03:11:08;20.20;99.90
22418;DHT22;11376;50.932;4.442;2023-09-12T03:13:35;20.10;99.90
22418;DHT22;11376;50.932;4.442;2023-09-12T03:16:01;19.90;99.90
22418;DHT22;11376;50.932;4.442;2023-09-12T03:18:27;19.90;99.90
22418;DHT22;11376;50.932;4.442;2023-09-12T03:20:53;19.80;99.90
22418;DHT22;11376;50.932;4.442;2023-09-12T03:23:21;19.90;99.90
22418;DHT22;11376;50.932;4.442;2023-09-12T03:25:47;20.10;99.90
22418;DHT22;11376;50.932;4.442;2023-09-12T03:28:13;20.10;99.90
22418;DHT22;11376;50.932;4.442;2023-09-12T03:30:39;20.10;99.90
22418;DHT22;11376;50.932;4.442;2023-09-12T03:33:05;20.10;99.90
22418;DHT22;11376;50.932;4.442;2023-09-12T03:35:34;20.10;99.90
22418;DHT22;11376;50.932;4.442;2023-09-12T03:38:00;20.10;99.90
22418;DHT22;11376;50.932;4.442;2023-09-12T03:40:29;20.10;99.90
22418;DHT22;11376;50.932;4.442;2023-09-12T03:42:56;20.40;99.90
22418;DHT22;11376;50.932;4.442;2023-09-12T03:45:22;20.60;99.90
22418;DHT22;11376;50.932;4.442;2023-09-12T03:47:48;20.50;99.90
22418;DHT22;11376;50.932;4.442;2023-09-12T03:50:14;20.40;99.90
22418;DHT22;11376;50.932;4.442;2023-09-12T03:52:39;20.50;99.90
22418;DHT22;11376;50.932;4.442;2023-09-12T03:55:06;20.70;99.90
22418;DHT22;11376;50.932;4.442;2023-09-12T03:57:31;20.80;99.90
22418;DHT22;11376;50.932;4.442;2023-09-12T03:59:57;20.90;99.90
22418;DHT22;11376;50.932;4.442;2023-09-12T04:02:23;21.10;99.90
22418;DHT22;11376;50.932;4.442;2023-09-12T04:04:49;21.10;99.90
22418;DHT22;11376;50.932;4.442;2023-09-12T04:07:15;21.10;99.90
22418;DHT22;11376;50.932;4.442;2023-09-12T04:09:41;21.20;99.90
22418;DHT22;11376;50.932;4.442;2023-09-12T04:12:07;21.30;99.90
22418;DHT22;11376;50.932;4.442;2023-09-12T04:14:34;21.30;99.90
22418;DHT22;11376;50.932;4.442;2023-09-12T04:17:00;21.40;99.90
22418;DHT22;11376;50.932;4.442;2023-09-12T04:19:26;21.40;99.90
22418;DHT22;11376;50.932;4.442;2023-09-12T04:21:51;21.30;99.90
22418;DHT22;11376;50.932;4.442;2023-09-12T04:24:17;21.30;99.90
22418;DHT22;11376;50.932;4.442;2023-09-12T04:26:43;21.30;99.90
22418;DHT22;11376;50.932;4.442;2023-09-12T04:29:10;21.20;99.90
22418;DHT22;11376;50.932;4.442;2023-09-12T04:31:36;21.30;99.90
22418;DHT22;11376;50.932;4.442;2023-09-12T04:34:02;21.40;99.90
22418;DHT22;11376;50.932;4.442;2023-09-12T04:36:27;21.20;99.90
22418;DHT22;11376;50.932;4.442;2023-09-12T04:38:53;21.10;99.90
22418;DHT22;11376;50.932;4.442;2023-09-12T04:41:19;21.00;99.90
22418;DHT22;11376;50.932;4.442;2023-09-12T04:43:44;21.00;99.90
22418;DHT22;11376;50.932;4.442;2023-09-12T04:46:11;21.00;99.90
22418;DHT22;11376;50.932;4.442;2023-09-12T04:48:37;21.00;99.90
22418;DHT22;11376;50.932;4.442;2023-09-12T04:51:03;20.90;99.90
22418;DHT22;11376;50.932;4.442;2023-09-12T04:53:29;20.90;99.90
22418;DHT22;11376;50.932;4.442;2023-09-12T04:56:04;20.90;99.90
22418;DHT22;11376;50.932;4.442;2023-09-12T04:58:32;20.90;99.90
22418;DHT22;11376;50.932;4.442;2023-09-12T05:00:58;21.00;99.90
22418;DHT22;11376;50.932;4.442;2023-09-12T05:03:23;21.00;99.90
22418;DHT22;11376;50.932;4.442;2023-09-12T05:05:50;21.00;99.90
22418;DHT22;11376;50.932;4.442;2023-09-12T05:08:16;21.00;99.90
22418;DHT22;11376;50.932;4.442;2023-09-12T05:10:46;21.00;99.90
22418;DHT22;11376;50.932;4.442;2023-09-12T05:13:13;21.10;99.90
22418;DHT22;11376;50.932;4.442;2023-09-12T05:15:40;21.10;99.90
22418;DHT22;11376;50.932;4.442;2023-09-12T05:18:06;21.10;99.90
22418;DHT22;11376;50.932;4.442;2023-09-12T05:20:32;21.00;99.90
22418;DHT22;11376;50.932;4.442;2023-09-12T05:22:59;21.00;99.90
22418;DHT22;11376;50.932;4.442;2023-09-12T05:25:25;21.00;99.90
22418;DHT22;11376;50.932;4.442;2023-09-12T05:27:52;21.00;99.90
22418;DHT22;11376;50.932;4.442;2023-09-12T05:30:18;20.90;99.90
22418;DHT22;11376;50.932;4.442;2023-09-12T05:32:44;20.90;99.90
22418;DHT22;11376;50.932;4.442;2023-09-12T05:35:09;20.90;99.90
22418;DHT22;11376;50.932;4.442;2023-09-12T05:37:35;20.90;99.90
22418;DHT22;11376;50.932;4.442;2023-09-12T05:40:01;20.90;99.90
22418;DHT22;11376;50.932;4.442;2023-09-12T05:42:26;20.90;99.90
22418;DHT22;11376;50.932;4.442;2023-09-12T05:44:52;20.90;99.90
22418;DHT22;11376;50.932;4.442;2023-09-12T05:47:22;20.90;99.90
22418;DHT22;11376;50.932;4.442;2023-09-12T05:49:48;21.00;99.90
22418;DHT22;11376;50.932;4.442;2023-09-12T05:52:14;20.90;99.90
22418;DHT22;11376;50.932;4.442;2023-09-12T05:54:40;20.90;99.90
22418;DHT22;11376;50.932;4.442;2023-09-12T05:57:09;20.90;99.90
22418;DHT22;11376;50.932;4.442;2023-09-12T05:59:37;20.90;99.90
22418;DHT22;11376;50.932;4.442;2023-09-12T06:02:04;21.00;99.90
22418;DHT22;11376;50.932;4.442;2023-09-12T06:04:32;21.10;99.90
22418;DHT22;11376;50.932;4.442;2023-09-12T06:06:58;21.00;99.90
22418;DHT22;11376;50.932;4.442;2023-09-12T06:09:23;20.80;99.90
22418;DHT22;11376;50.932;4.442;2023-09-12T06:11:49;20.70;99.90
22418;DHT22;11376;50.932;4.442;2023-09-12T06:14:15;20.70;99.90
22418;DHT22;11376;50.932;4.442;2023-09-12T06:16:41;20.70;99.90
22418;DHT22;11376;50.932;4.442;2023-09-12T06:19:07;20.80;99.90
22418;DHT22;11376;50.932;4.442;2023-09-12T06:21:32;20.90;99.90
22418;DHT22;11376;50.932;4.442;2023-09-12T06:24:12;21.00;99.90
22418;DHT22;11376;50.932;4.442;2023-09-12T06:26:38;21.20;99.90
22418;DHT22;11376;50.932;4.442;2023-09-12T06:29:04;21.30;99.90
22418;DHT22;11376;50.932;4.442;2023-09-12T06:31:30;21.60;99.90
22418;DHT22;11376;50.932;4.442;2023-09-12T06:33:56;21.60;99.90
22418;DHT22;11376;50.932;4.442;2023-09-12T06:36:24;21.50;99.90
22418;DHT22;11376;50.932;4.442;2023-09-12T06:38:50;21.20;99.90
22418;DHT22;11376;50.932;4.442;2023-09-12T06:41:19;21.00;99.90
22418;DHT22;11376;50.932;4.442;2023-09-12T06:43:45;20.80;99.90
22418;DHT22;11376;50.932;4.442;2023-09-12T06:46:10;20.70;99.90
22418;DHT22;11376;50.932;4.442;2023-09-12T06:48:36;20.70;99.90
22418;DHT22;11376;50.932;4.442;2023-09-12T06:51:05;20.60;99.90
22418;DHT22;11376;50.932;4.442;2023-09-12T06:53:30;20.70;99.90
22418;DHT22;11376;50.932;4.442;2023-09-12T06:55:56;20.80;99.90
22418;DHT22;11376;50.932;4.442;2023-09-12T06:58:22;21.10;99.90
22418;DHT22;11376;50.932;4.442;2023-09-12T07:00:48;21.10;99.90
22418;DHT22;11376;50.932;4.442;2023-09-12T07:03:14;21.10;99.90
22418;DHT22;11376;50.932;4.442;2023-09-12T07:05:41;20.80;99.90
22418;DHT22;11376;50.932;4.442;2023-09-12T07:08:07;20.90;99.90
22418;DHT22;11376;50.932;4.442;2023-09-12T07:10:34;21.00;99.90
22418;DHT22;11376;50.932;4.442;2023-09-12T07:12:59;21.10;99.90
22418;DHT22;11376;50.932;4.442;2023-09-12T07:15:25;21.30;99.90
22418;DHT22;11376;50.932;4.442;2023-09-12T07:17:51;21.50;99.90
22418;DHT22;11376;50.932;4.442;2023-09-12T07:20:17;21.60;99.90
22418;DHT22;11376;50.932;4.442;2023-09-12T07:22:43;21.50;99.90
22418;DHT22;11376;50.932;4.442;2023-09-12T07:25:09;21.40;99.90
22418;DHT22;11376;50.932;4.442;2023-09-12T07:27:37;21.30;99.90
22418;DHT22;11376;50.932;4.442;2023-09-12T07:30:05;21.50;99.90
22418;DHT22;11376;50.932;4.442;2023-09-12T07:32:31;21.70;99.90
22418;DHT22;11376;50.932;4.442;2023-09-12T07:34:56;21.70;99.90
22418;DHT22;11376;50.932;4.442;2023-09-12T07:37:22;21.40;99.90
22418;DHT22;11376;50.932;4.442;2023-09-12T07:39:48;21.30;99.90
22418;DHT22;11376;50.932;4.442;2023-09-12T07:42:13;21.30;99.90
22418;DHT22;11376;50.932;4.442;2023-09-12T07:44:39;21.50;99.90
22418;DHT22;11376;50.932;4.442;2023-09-12T07:47:05;21.70;99.90
22418;DHT22;11376;50.932;4.442;2023-09-12T07:49:31;21.90;99.90
22418;DHT22;11376;50.932;4.442;2023-09-12T07:51:56;21.90;99.90
22418;DHT22;11376;50.932;4.442;2023-09-12T07:54:23;21.80;99.90
22418;DHT22;11376;50.932;4.442;2023-09-12T07:56:48;21.90;99.90
22418;DHT22;11376;50.932;4.442;2023-09-12T07:59:14;22.00;99.90
22418;DHT22;11376;50.932;4.442;2023-09-12T08:01:40;22.40;99.90
22418;DHT22;11376;50.932;4.442;2023-09-12T08:04:06;22.70;99.90
22418;DHT22;11376;50.932;4.442;2023-09-12T08:06:34;22.90;99.90
22418;DHT22;11376;50.932;4.442;2023-09-12T08:09:00;23.50;99.90
22418;DHT22;11376;50.932;4.442;2023-09-12T08:11:26;23.70;99.90
22418;DHT22;11376;50.932;4.442;2023-09-12T08:13:52;23.90;99.90
22418;DHT22;11376;50.932;4.442;2023-09-12T08:16:18;23.40;99.90
22418;DHT22;11376;50.932;4.442;2023-09-12T08:18:44;23.50;99.90
22418;DHT22;11376;50.932;4.442;2023-09-12T08:21:10;23.60;99.90
22418;DHT22;11376;50.932;4.442;2023-09-12T08:23:35;23.50;99.90
22418;DHT22;11376;50.932;4.442;2023-09-12T08:26:01;23.50;99.90
22418;DHT22;11376;50.932;4.442;2023-09-12T08:28:27;23.80;99.90
22418;DHT22;11376;50.932;4.442;2023-09-12T08:30:53;23.80;99.90
22418;DHT22;11376;50.932;4.442;2023-09-12T08:33:18;23.80;99.90
22418;DHT22;11376;50.932;4.442;2023-09-12T08:35:44;23.80;99.90
22418;DHT22;11376;50.932;4.442;2023-09-12T08:38:10;23.70;99.90
22418;DHT22;11376;50.932;4.442;2023-09-12T08:40:37;23.90;99.90
22418;DHT22;11376;50.932;4.442;2023-09-12T08:43:03;23.90;99.90
22418;DHT22;11376;50.932;4.442;2023-09-12T08:45:29;24.20;99.90
22418;DHT22;11376;50.932;4.442;2023-09-12T08:47:57;24.20;99.90
22418;DHT22;11376;50.932;4.442;2023-09-12T08:50:24;24.10;99.90
22418;DHT22;11376;50.932;4.442;2023-09-12T08:52:50;24.30;99.90
22418;DHT22;11376;50.932;4.442;2023-09-12T08:55:16;24.30;99.90
22418;DHT22;11376;50.932;4.442;2023-09-12T08:57:43;24.40;99.90
22418;DHT22;11376;50.932;4.442;2023-09-12T09:00:10;24.60;99.90
22418;DHT22;11376;50.932;4.442;2023-09-12T09:02:43;24.70;99.90
22418;DHT22;11376;50.932;4.442;2023-09-12T09:05:11;24.80;99.90
22418;DHT22;11376;50.932;4.442;2023-09-12T09:07:41;24.60;99.90
22418;DHT22;11376;50.932;4.442;2023-09-12T09:10:09;24.30;99.90
22418;DHT22;11376;50.932;4.442;2023-09-12T09:12:35;24.50;99.90
22418;DHT22;11376;50.932;4.442;2023-09-12T09:15:24;24.70;99.90
22418;DHT22;11376;50.932;4.442;2023-09-12T09:17:52;25.20;99.90
22418;DHT22;11376;50.932;4.442;2023-09-12T09:20:31;25.50;99.90
22418;DHT22;11376;50.932;4.442;2023-09-12T09:23:07;25.80;99.90
22418;DHT22;11376;50.932;4.442;2023-09-12T09:25:43;26.20;99.90
22418;DHT22;11376;50.932;4.442;2023-09-12T09:28:20;26.60;99.90
22418;DHT22;11376;50.932;4.442;2023-09-12T09:30:50;26.40;99.90
22418;DHT22;11376;50.932;4.442;2023-09-12T09:33:17;25.90;99.90
22418;DHT22;11376;50.932;4.442;2023-09-12T09:35:47;26.00;99.90
22418;DHT22;11376;50.932;4.442;2023-09-12T09:38:13;25.80;99.90
22418;DHT22;11376;50.932;4.442;2023-09-12T09:40:45;26.10;99.90
22418;DHT22;11376;50.932;4.442;2023-09-12T09:43:11;26.20;99.90
22418;DHT22;11376;50.932;4.442;2023-09-12T09:45:45;26.50;99.90
22418;DHT22;11376;50.932;4.442;2023-09-12T09:48:21;26.70;99.90
22418;DHT22;11376;50.932;4.442;2023-09-12T09:50:47;26.30;99.90
22418;DHT22;11376;50.932;4.442;2023-09-12T09:53:13;25.90;99.90
22418;DHT22;11376;50.932;4.442;2023-09-12T09:55:39;26.20;99.90
22418;DHT22;11376;50.932;4.442;2023-09-12T09:58:08;26.30;99.90
22418;DHT22;11376;50.932;4.442;2023-09-12T10:00:37;26.60;99.90
22418;DHT22;11376;50.932;4.442;2023-09-12T10:03:06;27.10;99.90
22418;DHT22;11376;50.932;4.442;2023-09-12T10:05:33;27.30;99.90
22418;DHT22;11376;50.932;4.442;2023-09-12T10:08:02;27.40;99.90
22418;DHT22;11376;50.932;4.442;2023-09-12T10:10:31;27.70;99.90
22418;DHT22;11376;50.932;4.442;2023-09-12T10:12:58;28.20;99.90
22418;DHT22;11376;50.932;4.442;2023-09-12T10:15:29;28.00;99.90
22418;DHT22;11376;50.932;4.442;2023-09-12T10:17:58;27.80;99.90
22418;DHT22;11376;50.932;4.442;2023-09-12T10:20:47;27.90;99.90
22418;DHT22;11376;50.932;4.442;2023-09-12T10:23:20;26.80;99.90
22418;DHT22;11376;50.932;4.442;2023-09-12T10:25:49;26.80;99.90
22418;DHT22;11376;50.932;4.442;2023-09-12T10:28:17;27.20;99.90
22418;DHT22;11376;50.932;4.442;2023-09-12T10:30:44;27.60;99.90
22418;DHT22;11376;50.932;4.442;2023-09-12T10:33:11;28.30;99.90
22418;DHT22;11376;50.932;4.442;2023-09-12T10:35:40;29.10;99.90
22418;DHT22;11376;50.932;4.442;2023-09-12T10:38:07;29.40;99.90
22418;DHT22;11376;50.932;4.442;2023-09-12T10:40:36;30.40;99.90
22418;DHT22;11376;50.932;4.442;2023-09-12T10:43:03;30.50;99.90
22418;DHT22;11376;50.932;4.442;2023-09-12T10:45:31;30.30;99.90
22418;DHT22;11376;50.932;4.442;2023-09-12T10:47:58;29.80;99.90
22418;DHT22;11376;50.932;4.442;2023-09-12T10:50:24;29.30;99.90
22418;DHT22;11376;50.932;4.442;2023-09-12T10:52:50;30.50;99.90
22418;DHT22;11376;50.932;4.442;2023-09-12T10:55:17;31.60;99.90
22418;DHT22;11376;50.932;4.442;2023-09-12T10:58:08;33.20;99.90
22418;DHT22;11376;50.932;4.442;2023-09-12T11:00:36;33.60;99.90
22418;DHT22;11376;50.932;4.442;2023-09-12T11:05:59;31.30;99.90
22418;DHT22;11376;50.932;4.442;2023-09-12T11:08:27;30.60;99.90
22418;DHT22;11376;50.932;4.442;2023-09-12T11:11:17;31.30;99.90
22418;DHT22;11376;50.932;4.442;2023-09-12T11:13:44;31.70;99.90
22418;DHT22;11376;50.932;4.442;2023-09-12T11:16:15;31.10;99.90
22418;DHT22;11376;50.932;4.442;2023-09-12T11:19:18;31.90;99.90
22418;DHT22;11376;50.932;4.442;2023-09-12T11:21:46;33.50;99.90
22418;DHT22;11376;50.932;4.442;2023-09-12T11:24:13;33.80;99.90
22418;DHT22;11376;50.932;4.442;2023-09-12T11:26:59;33.80;99.90
22418;DHT22;11376;50.932;4.442;2023-09-12T11:29:36;33.60;99.90
22418;DHT22;11376;50.932;4.442;2023-09-12T11:32:03;32.80;99.90
22418;DHT22;11376;50.932;4.442;2023-09-12T11:34:35;31.50;99.90
22418;DHT22;11376;50.932;4.442;2023-09-12T11:37:02;30.80;99.90
22418;DHT22;11376;50.932;4.442;2023-09-12T11:39:31;30.40;99.90
22418;DHT22;11376;50.932;4.442;2023-09-12T11:41:58;30.00;99.90
22418;DHT22;11376;50.932;4.442;2023-09-12T11:44:24;30.10;99.90
22418;DHT22;11376;50.932;4.442;2023-09-12T11:46:52;31.50;99.90
22418;DHT22;11376;50.932;4.442;2023-09-12T11:49:18;33.00;99.90
22418;DHT22;11376;50.932;4.442;2023-09-12T11:51:52;32.90;99.90
22418;DHT22;11376;50.932;4.442;2023-09-12T11:54:28;33.60;99.90
22418;DHT22;11376;50.932;4.442;2023-09-12T11:56:54;34.50;99.90
22418;DHT22;11376;50.932;4.442;2023-09-12T11:59:23;35.10;99.90
22418;DHT22;11376;50.932;4.442;2023-09-12T12:01:49;35.10;99.90
22418;DHT22;11376;50.932;4.442;2023-09-12T12:04:15;36.00;99.90
22418;DHT22;11376;50.932;4.442;2023-09-12T12:06:41;34.40;99.90
22418;DHT22;11376;50.932;4.442;2023-09-12T12:09:09;34.00;99.90
22418;DHT22;11376;50.932;4.442;2023-09-12T12:11:35;35.80;99.90
22418;DHT22;11376;50.932;4.442;2023-09-12T12:14:14;34.60;99.90
22418;DHT22;11376;50.932;4.442;2023-09-12T12:16:42;35.40;99.90
22418;DHT22;11376;50.932;4.442;2023-09-12T12:19:09;37.20;98.10
22418;DHT22;11376;50.932;4.442;2023-09-12T12:21:40;37.70;95.70
22418;DHT22;11376;50.932;4.442;2023-09-12T12:24:11;37.00;94.50
22418;DHT22;11376;50.932;4.442;2023-09-12T12:26:40;35.90;96.60
22418;DHT22;11376;50.932;4.442;2023-09-12T12:29:05;36.30;95.90
22418;DHT22;11376;50.932;4.442;2023-09-12T12:31:31;36.10;95.70
22418;DHT22;11376;50.932;4.442;2023-09-12T12:33:57;34.10;98.10
22418;DHT22;11376;50.932;4.442;2023-09-12T12:36:25;34.20;98.40
22418;DHT22;11376;50.932;4.442;2023-09-12T12:38:52;34.20;98.90
22418;DHT22;11376;50.932;4.442;2023-09-12T12:43:50;33.10;99.90
22418;DHT22;11376;50.932;4.442;2023-09-12T12:46:20;33.10;99.90
22418;DHT22;11376;50.932;4.442;2023-09-12T12:48:49;34.20;99.90
22418;DHT22;11376;50.932;4.442;2023-09-12T12:51:18;34.60;99.00
22418;DHT22;11376;50.932;4.442;2023-09-12T12:53:46;33.50;99.90
22418;DHT22;11376;50.932;4.442;2023-09-12T12:56:17;32.80;99.90
22418;DHT22;11376;50.932;4.442;2023-09-12T12:59:04;30.90;99.90
22418;DHT22;11376;50.932;4.442;2023-09-12T13:01:34;30.10;99.90
22418;DHT22;11376;50.932;4.442;2023-09-12T13:04:00;30.20;99.90
22418;DHT22;11376;50.932;4.442;2023-09-12T13:06:26;29.40;99.90
22418;DHT22;11376;50.932;4.442;2023-09-12T13:08:53;29.60;99.90
22418;DHT22;11376;50.932;4.442;2023-09-12T13:11:19;30.00;99.90
22418;DHT22;11376;50.932;4.442;2023-09-12T13:13:48;29.80;99.90
22418;DHT22;11376;50.932;4.442;2023-09-12T13:16:16;28.40;99.90
22418;DHT22;11376;50.932;4.442;2023-09-12T13:18:42;28.10;99.90
22418;DHT22;11376;50.932;4.442;2023-09-12T13:21:08;28.50;99.90
22418;DHT22;11376;50.932;4.442;2023-09-12T13:23:36;28.00;99.90
22418;DHT22;11376;50.932;4.442;2023-09-12T13:26:02;28.00;99.90
22418;DHT22;11376;50.932;4.442;2023-09-12T13:28:29;27.90;99.90
22418;DHT22;11376;50.932;4.442;2023-09-12T13:30:55;28.00;99.90
22418;DHT22;11376;50.932;4.442;2023-09-12T13:33:21;28.10;99.90
22418;DHT22;11376;50.932;4.442;2023-09-12T13:35:49;28.00;99.90
22418;DHT22;11376;50.932;4.442;2023-09-12T13:38:15;27.90;99.90
22418;DHT22;11376;50.932;4.442;2023-09-12T13:40:43;27.80;99.90
22418;DHT22;11376;50.932;4.442;2023-09-12T13:43:09;27.80;99.90
22418;DHT22;11376;50.932;4.442;2023-09-12T13:45:35;27.70;99.90
22418;DHT22;11376;50.932;4.442;2023-09-12T13:48:02;27.70;99.90
22418;DHT22;11376;50.932;4.442;2023-09-12T13:50:29;27.30;99.90
22418;DHT22;11376;50.932;4.442;2023-09-12T13:52:56;27.10;99.90
22418;DHT22;11376;50.932;4.442;2023-09-12T13:55:22;26.70;99.90
22418;DHT22;11376;50.932;4.442;2023-09-12T13:57:48;26.70;99.90
22418;DHT22;11376;50.932;4.442;2023-09-12T14:00:14;26.80;99.90
22418;DHT22;11376;50.932;4.442;2023-09-12T14:02:40;27.00;99.90
22418;DHT22;11376;50.932;4.442;2023-09-12T14:05:06;27.20;99.90
22418;DHT22;11376;50.932;4.442;2023-09-12T14:07:32;27.30;99.90
22418;DHT22;11376;50.932;4.442;2023-09-12T14:09:57;27.00;99.90
22418;DHT22;11376;50.932;4.442;2023-09-12T14:12:24;26.60;99.90
22418;DHT22;11376;50.932;4.442;2023-09-12T14:14:51;26.30;99.90
22418;DHT22;11376;50.932;4.442;2023-09-12T14:17:17;26.20;99.90
22418;DHT22;11376;50.932;4.442;2023-09-12T14:19:43;26.40;99.90
22418;DHT22;11376;50.932;4.442;2023-09-12T14:22:09;26.70;99.90
22418;DHT22;11376;50.932;4.442;2023-09-12T14:24:35;26.50;99.90
22418;DHT22;11376;50.932;4.442;2023-09-12T14:27:00;26.30;99.90
22418;DHT22;11376;50.932;4.442;2023-09-12T14:29:26;26.00;99.90
22418;DHT22;11376;50.932;4.442;2023-09-12T14:31:55;26.10;99.90
22418;DHT22;11376;50.932;4.442;2023-09-12T14:34:27;26.00;99.90
22418;DHT22;11376;50.932;4.442;2023-09-12T14:36:56;25.70;99.90
22418;DHT22;11376;50.932;4.442;2023-09-12T14:39:24;25.70;99.90
22418;DHT22;11376;50.932;4.442;2023-09-12T14:41:51;25.90;99.90
22418;DHT22;11376;50.932;4.442;2023-09-12T14:44:20;25.60;99.90
22418;DHT22;11376;50.932;4.442;2023-09-12T14:46:46;25.60;99.90
22418;DHT22;11376;50.932;4.442;2023-09-12T14:49:12;25.20;99.90
22418;DHT22;11376;50.932;4.442;2023-09-12T14:51:38;25.20;99.90
22418;DHT22;11376;50.932;4.442;2023-09-12T14:54:04;25.20;99.90
22418;DHT22;11376;50.932;4.442;2023-09-12T14:56:31;25.30;99.90
22418;DHT22;11376;50.932;4.442;2023-09-12T14:58:57;25.20;99.90
22418;DHT22;11376;50.932;4.442;2023-09-12T15:01:23;25.10;99.90
22418;DHT22;11376;50.932;4.442;2023-09-12T15:03:52;25.10;99.90
22418;DHT22;11376;50.932;4.442;2023-09-12T15:06:18;25.30;99.90
22418;DHT22;11376;50.932;4.442;2023-09-12T15:08:44;25.40;99.90
22418;DHT22;11376;50.932;4.442;2023-09-12T15:11:10;25.30;99.90
22418;DHT22;11376;50.932;4.442;2023-09-12T15:13:36;25.30;99.90
22418;DHT22;11376;50.932;4.442;2023-09-12T15:16:03;25.10;99.90
22418;DHT22;11376;50.932;4.442;2023-09-12T15:18:29;25.00;99.90
22418;DHT22;11376;50.932;4.442;2023-09-12T15:20:55;24.90;99.90
22418;DHT22;11376;50.932;4.442;2023-09-12T15:23:21;24.80;99.90
22418;DHT22;11376;50.932;4.442;2023-09-12T15:25:50;24.80;99.90
22418;DHT22;11376;50.932;4.442;2023-09-12T15:28:17;24.60;99.90
22418;DHT22;11376;50.932;4.442;2023-09-12T15:30:43;24.40;99.90
22418;DHT22;11376;50.932;4.442;2023-09-12T15:33:09;24.40;99.90
22418;DHT22;11376;50.932;4.442;2023-09-12T15:35:34;24.40;99.90
22418;DHT22;11376;50.932;4.442;2023-09-12T15:38:00;24.40;99.90
22418;DHT22;11376;50.932;4.442;2023-09-12T15:40:26;24.50;99.90
22418;DHT22;11376;50.932;4.442;2023-09-12T15:42:52;24.50;99.90